KWRI

Joint Base McGuire-Dix-Lakehurst

Airport
ICAO code
KWRI
IATA Code
WRI
Summary
ICAO Region
NAM
ICAO Territory
Location

Wrightstown, New Jersey

Serving
Trenton
Elevation
131 ft
Coordinates
40° 1' 36" N , 74° 35' 21" W
KCC
Metar
KWRI 251555Z AUTO 27005KT 10SM FEW190 30/10 A2992 RMK AO2 SLP130 T03040103

Joint Base McGuire-Dix-Lakehurst, more commonly referred to as McGuire Air Force Base, is a United States Air Force installation located in Burlington County, New Jersey, USA approximately 14 nm south-southeast of Trenton.

Runways

Designator Length Width Surface Rops
18/36 2176 46 ASP Yes/Yes
6/24 3048 61 ASP Yes/Yes

Airport map

Aerial View

SKYbrary Partners:

Safety knowledge contributed by: